Time;durP1;ratioP1;P1;durP2;ratioP2;P2;SDS_P1;SDS_P2;PMS_P1;PMS_P2;Temp;Humidity;BMP_temperature;BMP_pressure;BME280_temperature;BME280_humidity;BME280_pressure;Samples;Min_cycle;Max_cycle;Signal;HPM_P1;HPM_P2
2023/08/23 00:00:11;;;;;;;2.03;1.07;;;15.90;56.60;;;;;;5075895;28;20224;-66
2023/08/23 00:02:39;;;;;;;0.80;0.80;;;15.80;57.00;;;;;;5073985;28;20767;-66
2023/08/23 00:05:07;;;;;;;0.90;0.90;;;15.90;56.70;;;;;;5073738;28;20194;-65
2023/08/23 00:07:34;;;;;;;0.83;0.83;;;16.20;56.10;;;;;;5069669;28;20491;-65
2023/08/23 00:10:02;;;;;;;2.00;0.90;;;16.20;56.20;;;;;;5075138;28;20229;-63
2023/08/23 00:12:29;;;;;;;2.07;1.07;;;16.30;55.40;;;;;;5078149;28;20175;-67
2023/08/23 00:14:57;;;;;;;0.80;0.80;;;16.30;55.10;;;;;;5075463;28;20192;-65
2023/08/23 00:17:24;;;;;;;1.47;1.13;;;16.30;55.90;;;;;;5079664;28;20261;-65
2023/08/23 00:19:51;;;;;;;1.70;1.00;;;16.30;55.20;;;;;;5080019;28;20195;-69
2023/08/23 00:22:19;;;;;;;1.67;1.03;;;16.50;55.10;;;;;;5074602;28;20187;-67
2023/08/23 00:24:46;;;;;;;1.43;0.93;;;16.80;55.70;;;;;;5074693;28;20253;-66
2023/08/23 00:27:13;;;;;;;1.23;0.90;;;16.80;54.30;;;;;;5073234;28;20176;-65
2023/08/23 00:29:41;;;;;;;1.00;0.90;;;16.70;53.80;;;;;;5071858;28;20216;-64
2023/08/23 00:32:08;;;;;;;1.10;0.93;;;16.70;54.70;;;;;;5071775;28;20194;-75
2023/08/23 00:34:35;;;;;;;0.93;0.80;;;17.20;55.00;;;;;;5072457;28;20564;-74
2023/08/23 00:37:03;;;;;;;4.03;1.13;;;17.00;54.00;;;;;;5072413;28;20195;-73
2023/08/23 00:39:30;;;;;;;1.07;0.97;;;17.30;54.00;;;;;;5078241;28;20184;-73
2023/08/23 00:41:57;;;;;;;1.43;0.90;;;17.50;53.00;;;;;;5074181;28;20215;-73
2023/08/23 00:44:25;;;;;;;1.47;0.83;;;17.40;52.60;;;;;;5081287;28;20733;-74
2023/08/23 00:46:52;;;;;;;0.90;0.90;;;17.30;53.10;;;;;;5078521;28;20555;-75
2023/08/23 00:49:20;;;;;;;1.87;1.10;;;17.30;53.30;;;;;;5080922;28;20542;-71
2023/08/23 00:51:48;;;;;;;1.53;0.90;;;17.10;54.10;;;;;;5070751;28;20182;-74
2023/08/23 00:54:16;;;;;;;1.10;1.00;;;17.30;53.40;;;;;;5073300;28;20192;-73
2023/08/23 00:56:43;;;;;;;1.17;0.90;;;17.40;53.50;;;;;;5076550;28;20273;-72
2023/08/23 00:59:11;;;;;;;1.10;0.97;;;17.40;53.20;;;;;;5070705;28;20586;-73
2023/08/23 01:01:38;;;;;;;0.80;0.80;;;17.50;53.10;;;;;;5076568;28;20185;-72
2023/08/23 01:04:05;;;;;;;1.10;1.00;;;17.70;53.30;;;;;;5076506;28;20181;-71
2023/08/23 01:06:52;;;;;;;0.80;0.80;;;17.90;53.10;;;;;;5067223;28;20205;-75
2023/08/23 01:09:39;;;;;;;1.07;0.90;;;17.90;52.00;;;;;;5067809;28;20257;-72
2023/08/23 01:12:26;;;;;;;0.97;0.90;;;18.10;53.10;;;;;;5073560;28;20189;-75
2023/08/23 01:14:57;;;;;;;1.00;0.90;;;18.20;52.20;;;;;;5069975;28;20618;-73
2023/08/23 01:17:25;;;;;;;2.10;0.90;;;18.10;52.60;;;;;;5077170;28;20223;-72
2023/08/23 01:19:56;;;;;;;1.83;1.10;;;18.30;52.70;;;;;;5067982;28;20693;-66
2023/08/23 01:22:28;;;;;;;3.10;1.07;;;18.50;52.20;;;;;;5077226;28;20279;-70
2023/08/23 01:24:55;;;;;;;1.00;0.80;;;18.80;51.50;;;;;;5070866;28;20183;-69
2023/08/23 01:27:23;;;;;;;1.37;1.00;;;18.60;52.30;;;;;;5075554;28;20190;-74
2023/08/23 01:29:50;;;;;;;2.63;0.90;;;18.70;52.20;;;;;;5077439;28;20195;-71
2023/08/23 01:32:45;;;;;;;1.43;0.80;;;18.80;52.20;;;;;;5076792;28;20183;-68
2023/08/23 01:35:21;;;;;;;1.20;0.80;;;18.90;52.10;;;;;;5069294;28;20209;-66
2023/08/23 01:37:54;;;;;;;1.00;0.90;;;19.10;51.40;;;;;;5075164;28;20214;-69
2023/08/23 01:40:24;;;;;;;2.97;0.93;;;19.60;50.60;;;;;;5075679;28;20202;-68
2023/08/23 01:42:52;;;;;;;2.83;1.07;;;19.50;51.20;;;;;;5080909;28;20273;-68
2023/08/23 01:45:19;;;;;;;2.13;1.00;;;19.70;51.50;;;;;;5079896;28;20179;-69
2023/08/23 01:47:47;;;;;;;1.20;0.90;;;19.80;51.90;;;;;;5077103;28;20189;-71
2023/08/23 01:50:14;;;;;;;1.20;0.90;;;19.70;51.80;;;;;;5075558;28;20273;-71
2023/08/23 01:52:41;;;;;;;3.33;1.10;;;19.50;51.70;;;;;;5075413;28;20536;-68
2023/08/23 01:55:09;;;;;;;2.00;0.90;;;19.30;53.50;;;;;;5081896;28;20246;-72
2023/08/23 01:57:38;;;;;;;3.57;1.10;;;19.30;54.40;;;;;;5077692;28;20633;-69
2023/08/23 02:00:06;;;;;;;1.20;0.97;;;19.30;54.80;;;;;;5074865;28;20537;-70
2023/08/23 02:02:34;;;;;;;2.63;1.10;;;19.40;54.80;;;;;;5078457;28;20179;-69
2023/08/23 02:05:01;;;;;;;2.77;1.50;;;19.60;53.20;;;;;;5078816;28;20171;-66
2023/08/23 02:07:28;;;;;;;6.23;1.20;;;19.70;57.10;;;;;;5075199;28;20199;-68
2023/08/23 02:09:56;;;;;;;3.27;1.60;;;19.60;58.20;;;;;;5076789;28;20230;-66
2023/08/23 02:12:23;;;;;;;6.27;1.30;;;19.50;59.40;;;;;;5077524;28;20186;-73
2023/08/23 02:14:50;;;;;;;3.23;1.20;;;19.50;59.00;;;;;;5087072;28;20675;-70
2023/08/23 02:17:18;;;;;;;2.33;1.30;;;19.20;59.80;;;;;;5078839;28;20222;-69
2023/08/23 02:19:45;;;;;;;4.40;1.90;;;19.20;60.80;;;;;;5080145;28;20182;-69
2023/08/23 02:22:12;;;;;;;5.00;1.20;;;19.00;61.70;;;;;;5078095;28;20629;-68
2023/08/23 02:24:39;;;;;;;2.57;0.93;;;18.80;63.00;;;;;;5054372;28;20186;-74
2023/08/23 02:27:07;;;;;;;7.80;1.30;;;18.70;64.20;;;;;;5075410;28;20190;-70
2023/08/23 02:29:34;;;;;;;1.80;1.10;;;18.70;65.20;;;;;;5082566;28;20179;-76
2023/08/23 02:32:02;;;;;;;2.57;1.03;;;18.80;64.90;;;;;;5078689;28;20187;-70
2023/08/23 02:34:29;;;;;;;3.03;1.20;;;18.50;65.70;;;;;;5078006;28;20175;-69
2023/08/23 02:36:56;;;;;;;1.27;0.93;;;18.30;67.40;;;;;;5074992;28;20248;-68
2023/08/23 02:39:24;;;;;;;2.83;1.07;;;18.30;67.10;;;;;;5078835;28;20183;-69
2023/08/23 02:41:51;;;;;;;1.57;0.80;;;18.20;68.40;;;;;;5075695;28;20689;-66
2023/08/23 02:44:19;;;;;;;1.17;0.93;;;18.30;68.90;;;;;;5076070;28;20206;-68
2023/08/23 02:46:46;;;;;;;1.40;0.73;;;18.20;69.50;;;;;;5076879;28;20179;-69
2023/08/23 02:49:13;;;;;;;4.00;0.83;;;17.90;71.10;;;;;;5078957;28;20280;-65
2023/08/23 02:51:40;;;;;;;4.93;1.50;;;17.80;72.70;;;;;;5079461;28;20190;-67
2023/08/23 02:54:09;;;;;;;3.07;1.30;;;17.70;73.90;;;;;;5078829;28;20178;-69
2023/08/23 02:56:36;;;;;;;4.43;1.20;;;17.40;74.70;;;;;;5079999;28;20186;-67
2023/08/23 02:59:03;;;;;;;2.30;1.30;;;17.20;76.30;;;;;;5075747;28;20236;-70
2023/08/23 03:01:30;;;;;;;2.10;1.17;;;16.80;79.70;;;;;;5067686;28;20194;-69
2023/08/23 03:03:58;;;;;;;4.23;1.97;;;16.60;80.40;;;;;;5077698;28;20591;-69
2023/08/23 03:06:25;;;;;;;2.50;1.20;;;16.40;81.30;;;;;;5078869;28;20194;-68
2023/08/23 03:08:52;;;;;;;2.50;1.30;;;16.20;82.70;;;;;;5077134;28;20253;-67
2023/08/23 03:11:20;;;;;;;2.87;1.77;;;16.10;83.90;;;;;;5075973;28;20246;-69
2023/08/23 03:13:47;;;;;;;2.77;2.10;;;15.80;84.20;;;;;;5076112;28;20187;-66
2023/08/23 03:16:14;;;;;;;2.20;2.00;;;15.70;84.90;;;;;;5079275;28;20258;-67
2023/08/23 03:18:42;;;;;;;3.57;2.00;;;15.60;85.00;;;;;;5054056;28;20268;-69
2023/08/23 03:21:09;;;;;;;3.23;2.20;;;15.60;84.70;;;;;;5079300;28;20176;-65
2023/08/23 03:23:36;;;;;;;2.40;2.20;;;15.70;84.30;;;;;;5073374;28;20198;-71
2023/08/23 03:26:04;;;;;;;2.63;2.40;;;15.70;84.20;;;;;;5077788;28;20206;-67
2023/08/23 03:28:31;;;;;;;2.00;1.90;;;15.70;83.40;;;;;;5072073;28;20193;-69
2023/08/23 03:31:04;;;;;;;2.20;2.00;;;15.70;82.70;;;;;;5058367;28;20205;-66
2023/08/23 03:33:32;;;;;;;2.37;2.13;;;15.70;81.70;;;;;;5075917;28;20858;-68
2023/08/23 03:36:00;;;;;;;3.67;2.27;;;15.70;81.80;;;;;;5078667;28;20215;-71
2023/08/23 03:38:27;;;;;;;3.07;1.97;;;15.80;81.30;;;;;;5075187;28;20238;-66
2023/08/23 03:40:54;;;;;;;2.20;2.00;;;15.80;81.30;;;;;;5078372;28;20633;-68
2023/08/23 03:43:22;;;;;;;2.87;1.93;;;16.00;80.40;;;;;;5075248;28;20748;-65
2023/08/23 03:45:50;;;;;;;2.60;1.80;;;16.10;80.10;;;;;;5078416;28;20249;-68
2023/08/23 03:48:17;;;;;;;6.30;1.93;;;16.30;80.20;;;;;;5072980;28;20191;-68
2023/08/23 03:50:45;;;;;;;3.90;2.03;;;16.50;79.10;;;;;;5079352;28;20187;-68
2023/08/23 03:53:12;;;;;;;4.00;1.80;;;16.60;77.90;;;;;;5071988;28;20204;-69
2023/08/23 03:55:40;;;;;;;4.87;2.20;;;16.60;77.80;;;;;;5074019;28;20230;-69
2023/08/23 03:58:07;;;;;;;3.47;1.83;;;16.70;76.80;;;;;;5074121;28;20754;-66
2023/08/23 04:00:36;;;;;;;5.47;2.17;;;16.70;76.60;;;;;;5076624;28;20638;-70
2023/08/23 04:03:04;;;;;;;8.00;1.93;;;16.80;75.90;;;;;;5072419;28;20182;-66
2023/08/23 04:05:31;;;;;;;5.50;1.80;;;17.00;75.40;;;;;;5071495;28;20188;-70
2023/08/23 04:07:59;;;;;;;7.60;2.00;;;16.90;73.90;;;;;;5072984;28;20193;-67
2023/08/23 04:10:26;;;;;;;4.80;1.80;;;16.80;74.70;;;;;;5077158;28;20229;-66
2023/08/23 04:12:53;;;;;;;4.53;1.93;;;16.90;74.40;;;;;;5080859;28;20596;-68
2023/08/23 04:15:21;;;;;;;5.00;1.90;;;16.90;73.80;;;;;;5071919;28;20211;-72
2023/08/23 04:17:48;;;;;;;7.03;2.63;;;16.90;73.70;;;;;;5073894;28;20237;-69
2023/08/23 04:20:16;;;;;;;6.20;2.60;;;16.90;73.80;;;;;;5070234;28;20175;-68
2023/08/23 04:22:44;;;;;;;7.47;2.20;;;16.90;74.00;;;;;;5066768;28;20528;-67
2023/08/23 04:25:12;;;;;;;4.30;2.00;;;16.80;74.10;;;;;;5072089;28;20186;-66
2023/08/23 04:27:39;;;;;;;6.17;2.03;;;16.80;74.10;;;;;;5054773;28;20178;-65
2023/08/23 04:30:07;;;;;;;11.00;2.10;;;16.70;74.20;;;;;;5075180;28;20196;-66
2023/08/23 04:32:35;;;;;;;5.97;2.30;;;16.70;74.50;;;;;;5078815;28;20678;-69
2023/08/23 04:35:02;;;;;;;6.77;2.10;;;16.50;74.80;;;;;;5073337;28;20267;-72
2023/08/23 04:37:29;;;;;;;8.47;2.10;;;16.40;75.90;;;;;;5073060;28;20224;-76
2023/08/23 04:39:57;;;;;;;7.13;2.40;;;16.50;75.40;;;;;;5076447;28;20266;-70
2023/08/23 04:42:24;;;;;;;8.47;2.50;;;16.70;75.40;;;;;;5077905;28;20204;-71
2023/08/23 04:44:51;;;;;;;5.80;1.97;;;16.80;74.90;;;;;;5074522;28;20652;-69
2023/08/23 04:47:18;;;;;;;7.30;2.07;;;17.00;74.70;;;;;;5074729;28;20178;-70
2023/08/23 04:49:46;;;;;;;9.73;2.67;;;16.90;73.60;;;;;;5078037;28;20185;-69
2023/08/23 04:52:13;;;;;;;6.67;2.40;;;16.90;74.60;;;;;;5077104;28;20554;-67
2023/08/23 04:54:40;;;;;;;9.13;2.80;;;16.70;78.20;;;;;;5075331;28;20190;-67
2023/08/23 04:57:08;;;;;;;12.73;3.10;;;16.40;81.40;;;;;;5075771;28;20270;-69
2023/08/23 04:59:35;;;;;;;10.40;3.17;;;16.30;83.10;;;;;;5074126;28;20189;-67
2023/08/23 05:02:03;;;;;;;14.57;3.33;;;16.10;83.40;;;;;;5069988;28;20545;-65
2023/08/23 05:04:30;;;;;;;6.57;2.80;;;16.00;84.40;;;;;;5071637;28;20226;-67
2023/08/23 05:06:58;;;;;;;10.70;2.87;;;16.00;84.30;;;;;;5073415;28;20187;-65
2023/08/23 05:09:26;;;;;;;12.67;2.93;;;16.00;83.60;;;;;;5076026;28;20704;-67
2023/08/23 05:11:53;;;;;;;14.00;3.30;;;15.90;83.10;;;;;;5078009;28;20183;-66
2023/08/23 05:14:21;;;;;;;5.03;2.70;;;16.00;83.20;;;;;;5074466;28;20195;-68
2023/08/23 05:16:48;;;;;;;12.03;3.40;;;16.00;82.30;;;;;;5063091;28;20186;-65
2023/08/23 05:19:15;;;;;;;9.10;3.13;;;16.00;81.70;;;;;;5076086;28;20685;-67
2023/08/23 05:21:43;;;;;;;11.00;2.60;;;16.30;81.00;;;;;;5082146;28;20272;-65
2023/08/23 05:24:10;;;;;;;12.40;2.80;;;16.40;80.50;;;;;;5077680;28;20193;-64
2023/08/23 05:26:37;;;;;;;12.27;3.70;;;16.40;80.00;;;;;;5076408;28;20186;-69
2023/08/23 05:29:05;;;;;;;11.57;3.07;;;16.50;80.60;;;;;;5078793;28;20533;-67
2023/08/23 05:31:32;;;;;;;8.47;2.80;;;16.50;81.40;;;;;;5081224;28;20186;-66
2023/08/23 05:34:00;;;;;;;8.90;2.73;;;16.40;81.30;;;;;;5080423;28;20178;-67
2023/08/23 05:36:27;;;;;;;11.23;3.40;;;16.40;80.70;;;;;;5080811;28;20284;-67
2023/08/23 05:38:54;;;;;;;7.63;2.70;;;16.40;80.70;;;;;;5075973;28;20228;-70
2023/08/23 05:41:21;;;;;;;13.07;3.07;;;16.40;80.40;;;;;;5079170;28;20179;-69
2023/08/23 05:43:50;;;;;;;12.97;2.80;;;16.40;80.40;;;;;;5074643;28;20211;-66
2023/08/23 05:46:18;;;;;;;14.70;2.80;;;16.50;80.70;;;;;;5078740;28;21167;-69
2023/08/23 05:48:45;;;;;;;8.87;3.10;;;16.50;81.10;;;;;;5086283;28;20234;-65
2023/08/23 05:51:12;;;;;;;10.93;2.90;;;16.30;81.50;;;;;;5078390;28;20186;-67
2023/08/23 05:53:40;;;;;;;7.33;2.80;;;16.30;82.20;;;;;;5078112;28;20645;-65
2023/08/23 05:56:07;;;;;;;11.03;3.33;;;16.20;82.50;;;;;;5076620;28;20250;-66
2023/08/23 05:58:35;;;;;;;13.47;4.37;;;16.20;82.80;;;;;;5077031;28;20209;-66
2023/08/23 06:01:02;;;;;;;12.43;2.97;;;16.10;82.90;;;;;;5084422;28;20188;-66
2023/08/23 06:03:29;;;;;;;13.60;3.47;;;16.10;82.90;;;;;;5070663;28;20199;-66
2023/08/23 06:05:57;;;;;;;10.17;3.23;;;16.10;83.20;;;;;;5074949;28;20206;-72
2023/08/23 06:08:24;;;;;;;11.87;3.20;;;16.10;83.50;;;;;;5077318;28;20302;-73
2023/08/23 06:10:52;;;;;;;16.07;4.77;;;16.10;82.80;;;;;;5079077;28;20690;-72
2023/08/23 06:13:19;;;;;;;9.27;3.47;;;16.10;82.90;;;;;;5074527;28;20190;-66
2023/08/23 06:15:47;;;;;;;14.73;4.03;;;16.20;82.70;;;;;;5074840;28;20182;-68
2023/08/23 06:18:14;;;;;;;14.47;3.97;;;16.20;82.50;;;;;;5080649;28;20327;-73
2023/08/23 06:20:43;;;;;;;14.17;3.80;;;16.20;82.60;;;;;;5076553;28;20178;-74
2023/08/23 06:23:10;;;;;;;18.47;4.73;;;16.20;82.50;;;;;;5055974;28;20176;-73
2023/08/23 06:25:38;;;;;;;14.30;3.97;;;16.20;82.60;;;;;;5071278;28;20549;-72
2023/08/23 06:28:09;;;;;;;14.13;3.87;;;16.20;82.50;;;;;;5075681;28;20265;-73
2023/08/23 06:30:37;;;;;;;11.30;3.07;;;16.20;82.20;;;;;;5075621;28;20187;-74
2023/08/23 06:33:05;;;;;;;12.30;2.70;;;16.10;80.00;;;;;;5077027;28;20226;-66
2023/08/23 06:35:33;;;;;;;13.07;2.70;;;16.00;77.70;;;;;;5078128;28;20185;-65
2023/08/23 06:38:00;;;;;;;7.17;2.53;;;16.20;77.00;;;;;;5069166;28;20217;-65
2023/08/23 06:40:27;;;;;;;10.67;2.03;;;16.20;76.30;;;;;;5077913;28;20206;-66
2023/08/23 06:42:55;;;;;;;12.50;2.17;;;16.30;76.00;;;;;;5076006;28;20201;-65
2023/08/23 06:45:22;;;;;;;9.77;2.40;;;16.30;76.00;;;;;;5076479;28;20651;-68
2023/08/23 06:47:49;;;;;;;8.33;2.80;;;16.30;75.60;;;;;;5077899;28;20660;-73
2023/08/23 06:50:17;;;;;;;9.80;2.70;;;16.30;75.70;;;;;;5063014;28;20681;-63
2023/08/23 06:52:44;;;;;;;12.67;2.93;;;16.30;75.80;;;;;;5077621;28;20188;-69
2023/08/23 06:55:12;;;;;;;14.20;2.90;;;16.30;75.30;;;;;;5079847;28;20190;-68
2023/08/23 06:57:39;;;;;;;9.73;2.73;;;16.30;75.50;;;;;;5075745;28;20209;-67
2023/08/23 07:00:08;;;;;;;9.37;2.27;;;16.30;75.80;;;;;;5075038;28;20206;-67
2023/08/23 07:02:36;;;;;;;10.63;2.40;;;16.30;75.60;;;;;;5056946;28;21604;-66
2023/08/23 07:05:03;;;;;;;7.17;2.37;;;16.30;75.80;;;;;;5079435;28;20172;-73
2023/08/23 07:07:30;;;;;;;11.03;2.23;;;16.20;75.60;;;;;;5076016;28;20555;-70
2023/08/23 07:09:58;;;;;;;10.27;2.50;;;16.20;75.30;;;;;;5074097;28;20225;-69
2023/08/23 07:12:26;;;;;;;9.63;2.50;;;16.30;75.50;;;;;;5074993;28;20220;-66
2023/08/23 07:14:53;;;;;;;15.13;2.53;;;16.20;75.20;;;;;;5072982;28;20198;-69
2023/08/23 07:17:20;;;;;;;7.47;2.13;;;16.20;75.30;;;;;;5074126;28;20234;-75
2023/08/23 07:19:48;;;;;;;9.17;2.40;;;16.20;75.30;;;;;;5072741;28;20271;-69
2023/08/23 07:22:15;;;;;;;8.50;2.50;;;16.10;74.90;;;;;;5078337;28;20248;-70
2023/08/23 07:24:42;;;;;;;6.83;1.93;;;16.10;74.60;;;;;;5058944;28;20331;-69
2023/08/23 07:27:10;;;;;;;6.60;2.00;;;16.10;74.40;;;;;;5075767;28;20209;-69
2023/08/23 07:29:38;;;;;;;12.30;2.67;;;16.10;74.30;;;;;;5079946;28;20198;-74
2023/08/23 07:32:06;;;;;;;8.57;2.27;;;16.10;73.80;;;;;;5066048;28;20215;-67
2023/08/23 07:34:33;;;;;;;6.07;2.23;;;16.10;73.90;;;;;;5077317;28;20198;-71
2023/08/23 07:37:00;;;;;;;7.60;1.87;;;16.10;74.00;;;;;;5082103;28;20191;-66
2023/08/23 07:39:28;;;;;;;15.17;2.90;;;16.10;74.20;;;;;;5071700;28;20197;-65
2023/08/23 07:41:56;;;;;;;8.27;2.17;;;16.10;74.40;;;;;;5078127;28;20172;-67
2023/08/23 07:44:23;;;;;;;13.60;2.83;;;16.10;74.40;;;;;;5076101;28;20322;-66
2023/08/23 07:46:51;;;;;;;15.30;2.83;;;16.10;74.70;;;;;;5081409;28;20255;-65
2023/08/23 07:49:18;;;;;;;9.37;2.30;;;16.10;75.00;;;;;;5077603;28;20643;-66
2023/08/23 07:51:48;;;;;;;11.63;2.83;;;16.10;75.20;;;;;;5072672;28;20189;-65
2023/08/23 07:54:15;;;;;;;12.30;2.63;;;16.10;75.30;;;;;;5074074;28;20213;-65
2023/08/23 07:56:42;;;;;;;15.03;2.57;;;16.10;75.50;;;;;;5072001;28;20186;-66
2023/08/23 07:59:10;;;;;;;7.73;2.00;;;16.00;75.70;;;;;;5075063;28;20679;-67
2023/08/23 08:01:37;;;;;;;9.47;2.80;;;16.10;75.90;;;;;;5075974;28;20178;-67
2023/08/23 08:04:04;;;;;;;13.23;2.83;;;16.10;76.00;;;;;;5072169;28;20181;-68
2023/08/23 08:06:32;;;;;;;8.77;2.97;;;16.10;76.30;;;;;;5073101;28;20185;-66
2023/08/23 08:08:59;;;;;;;7.17;3.17;;;16.10;76.50;;;;;;5074919;28;20225;-68
2023/08/23 08:11:27;;;;;;;8.43;2.77;;;16.10;76.70;;;;;;5073740;28;20179;-69
2023/08/23 08:13:54;;;;;;;12.17;2.60;;;16.10;76.80;;;;;;5073665;28;20175;-65
2023/08/23 08:16:21;;;;;;;15.50;3.27;;;16.10;76.90;;;;;;5072679;28;20200;-67
2023/08/23 08:18:49;;;;;;;11.37;2.80;;;16.10;77.00;;;;;;5068925;28;20295;-65
2023/08/23 08:21:17;;;;;;;12.80;2.87;;;16.20;76.90;;;;;;5072700;28;20179;-67
2023/08/23 08:23:46;;;;;;;7.90;2.63;;;16.20;76.90;;;;;;5074595;28;20182;-66
2023/08/23 08:26:14;;;;;;;12.87;2.50;;;16.20;76.90;;;;;;5080388;28;20271;-70
2023/08/23 08:28:43;;;;;;;18.40;3.00;;;16.20;76.90;;;;;;5071693;28;20262;-71
2023/08/23 08:31:12;;;;;;;10.07;2.40;;;16.10;76.80;;;;;;5079539;28;20216;-74
2023/08/23 08:33:39;;;;;;;14.00;2.47;;;16.10;76.70;;;;;;5074313;28;20180;-69
2023/08/23 08:36:06;;;;;;;15.77;2.13;;;16.10;76.70;;;;;;5075750;28;20513;-67
2023/08/23 08:38:34;;;;;;;9.60;2.53;;;16.10;76.80;;;;;;5074666;28;20204;-68
2023/08/23 08:41:01;;;;;;;12.20;2.40;;;16.20;76.80;;;;;;5071163;28;20204;-69
2023/08/23 08:43:29;;;;;;;12.07;3.07;;;16.20;76.90;;;;;;5075780;28;20583;-68
2023/08/23 08:45:57;;;;;;;10.53;2.90;;;16.10;77.00;;;;;;5078433;28;20552;-70
2023/08/23 08:48:24;;;;;;;15.63;3.03;;;16.20;77.00;;;;;;5073180;28;20185;-71
2023/08/23 08:50:54;;;;;;;9.37;2.43;;;16.10;77.10;;;;;;5082944;28;20635;-74
2023/08/23 08:53:22;;;;;;;13.03;2.63;;;16.10;77.30;;;;;;5075035;28;20179;-71
2023/08/23 08:55:50;;;;;;;14.73;3.30;;;16.10;77.30;;;;;;5082634;28;20201;-69
2023/08/23 08:58:20;;;;;;;9.03;2.67;;;16.10;77.10;;;;;;5079680;28;20220;-67
2023/08/23 09:00:53;;;;;;;9.67;2.23;;;16.10;77.00;;;;;;5082578;28;20181;-66
2023/08/23 09:03:20;;;;;;;10.80;2.63;;;16.10;77.20;;;;;;5077085;28;20190;-67
2023/08/23 09:05:48;;;;;;;9.80;3.00;;;16.00;77.10;;;;;;5081331;28;20874;-70
2023/08/23 09:08:16;;;;;;;13.67;3.20;;;16.00;77.00;;;;;;5074022;28;20298;-70
2023/08/23 09:10:44;;;;;;;13.37;2.83;;;16.10;76.90;;;;;;5061999;28;20190;-67
2023/08/23 09:13:12;;;;;;;11.53;2.80;;;16.10;76.90;;;;;;5058889;28;20328;-70
2023/08/23 09:15:39;;;;;;;12.23;3.03;;;16.10;76.90;;;;;;5062273;28;20273;-73
2023/08/23 09:18:06;;;;;;;12.23;2.80;;;16.00;76.90;;;;;;5056179;28;20267;-69
2023/08/23 09:20:35;;;;;;;12.17;2.90;;;16.00;76.60;;;;;;5062430;28;20189;-69
2023/08/23 09:23:03;;;;;;;9.40;2.70;;;16.10;76.60;;;;;;5056706;28;20193;-68
2023/08/23 09:25:31;;;;;;;12.03;2.77;;;16.10;76.20;;;;;;5057668;28;20705;-74
2023/08/23 09:27:58;;;;;;;9.50;2.90;;;16.10;76.00;;;;;;5056530;28;20565;-75
2023/08/23 09:30:25;;;;;;;13.80;2.77;;;16.10;75.90;;;;;;5061644;28;20697;-67
2023/08/23 09:32:53;;;;;;;13.27;3.00;;;16.10;75.80;;;;;;5043126;28;20185;-70
2023/08/23 09:35:20;;;;;;;10.93;2.90;;;16.10;76.00;;;;;;5057142;28;20622;-65
2023/08/23 09:37:50;;;;;;;7.57;2.40;;;16.00;75.90;;;;;;5056771;28;20221;-69
2023/08/23 09:40:21;;;;;;;13.37;2.87;;;16.00;75.70;;;;;;5059767;28;20205;-68
2023/08/23 09:42:50;;;;;;;13.97;4.83;;;16.00;75.80;;;;;;5052620;28;20184;-67
2023/08/23 09:45:19;;;;;;;12.70;3.20;;;16.00;75.70;;;;;;5059209;28;20182;-69
2023/08/23 09:47:56;;;;;;;12.63;3.13;;;16.00;75.50;;;;;;5054916;28;20200;-65
2023/08/23 09:50:25;;;;;;;17.30;3.30;;;16.00;75.30;;;;;;5056159;28;20192;-67
2023/08/23 09:53:04;;;;;;;11.43;2.87;;;16.00;75.30;;;;;;5060348;28;20211;-65
2023/08/23 09:55:35;;;;;;;10.90;3.50;;;16.00;75.40;;;;;;5057462;28;20187;-65
2023/08/23 09:58:03;;;;;;;11.40;2.43;;;16.00;75.30;;;;;;5054295;28;20245;-72
2023/08/23 10:00:30;;;;;;;8.97;2.40;;;16.00;75.40;;;;;;5045441;28;20182;-69
2023/08/23 10:02:58;;;;;;;8.33;2.57;;;16.00;75.40;;;;;;5051801;28;20665;-65
2023/08/23 10:05:26;;;;;;;12.97;2.73;;;16.00;75.50;;;;;;5052568;28;20183;-64
2023/08/23 10:07:55;;;;;;;14.07;2.70;;;15.90;75.50;;;;;;5054750;28;20184;-66
2023/08/23 10:10:22;;;;;;;9.83;3.30;;;16.00;75.40;;;;;;5069115;28;20325;-65
2023/08/23 10:12:54;;;;;;;14.77;3.70;;;15.90;75.40;;;;;;5078931;28;20177;-66
2023/08/23 10:15:32;;;;;;;6.37;2.27;;;15.90;75.50;;;;;;5073056;28;20696;-65
2023/08/23 10:18:02;;;;;;;14.10;2.87;;;15.90;75.60;;;;;;5062575;28;20320;-66
2023/08/23 10:20:32;;;;;;;11.10;3.00;;;15.90;75.80;;;;;;5070141;28;20219;-65
2023/08/23 10:23:00;;;;;;;13.27;3.97;;;15.90;75.90;;;;;;5079934;28;22056;-65
2023/08/23 10:25:27;;;;;;;12.53;4.70;;;15.80;75.80;;;;;;5075176;28;20543;-67
2023/08/23 10:27:56;;;;;;;9.30;4.30;;;15.80;75.80;;;;;;5077754;28;20603;-68
2023/08/23 10:30:26;;;;;;;8.03;2.67;;;15.80;76.00;;;;;;5076954;28;20182;-67
2023/08/23 10:32:55;;;;;;;11.60;2.83;;;15.80;76.00;;;;;;5072900;28;20176;-66
2023/08/23 10:35:32;;;;;;;11.97;2.90;;;15.70;76.20;;;;;;5051068;28;20189;-69
2023/08/23 10:38:00;;;;;;;8.00;2.50;;;15.60;76.60;;;;;;5073351;28;20609;-63
2023/08/23 10:40:29;;;;;;;11.73;3.07;;;15.50;76.80;;;;;;5073463;28;20197;-68
2023/08/23 10:42:57;;;;;;;12.23;3.27;;;15.50;77.10;;;;;;5074353;28;20269;-67
2023/08/23 10:45:25;;;;;;;16.53;3.00;;;15.40;77.50;;;;;;5073483;28;20189;-64
2023/08/23 10:47:53;;;;;;;18.40;2.90;;;15.30;77.70;;;;;;5072754;28;20198;-66
2023/08/23 10:50:21;;;;;;;12.90;3.20;;;15.30;77.80;;;;;;5075316;28;20273;-66
2023/08/23 10:52:49;;;;;;;9.27;2.63;;;15.20;78.00;;;;;;5075691;28;20187;-66
2023/08/23 10:55:17;;;;;;;9.10;3.20;;;15.20;78.20;;;;;;5075541;28;20180;-65
2023/08/23 10:57:44;;;;;;;7.70;2.40;;;15.10;78.30;;;;;;5075812;28;20676;-65
2023/08/23 11:00:12;;;;;;;14.53;3.10;;;15.00;78.50;;;;;;5077939;28;20537;-68
2023/08/23 11:02:41;;;;;;;13.17;2.70;;;15.00;78.90;;;;;;5073818;28;20187;-67
2023/08/23 11:08:31;;;;;;;11.33;2.77;;;14.90;78.90;;;;;;5071764;28;20205;-66
2023/08/23 11:10:58;;;;;;;15.37;3.20;;;14.80;79.30;;;;;;5073438;28;20824;-69
2023/08/23 11:13:26;;;;;;;9.90;3.50;;;14.80;79.40;;;;;;5074221;28;20248;-66
2023/08/23 11:15:53;;;;;;;13.97;3.47;;;14.80;79.60;;;;;;5078070;28;20213;-66
2023/08/23 11:18:22;;;;;;;14.37;2.87;;;14.80;79.80;;;;;;5080922;28;20234;-66
2023/08/23 11:20:49;;;;;;;10.70;3.30;;;14.80;79.80;;;;;;5074323;28;20592;-65
2023/08/23 11:23:16;;;;;;;14.00;3.70;;;14.80;79.80;;;;;;5070691;28;20594;-66
2023/08/23 11:25:44;;;;;;;11.10;3.50;;;14.80;80.20;;;;;;5075047;28;20175;-68
2023/08/23 11:28:15;;;;;;;6.60;2.80;;;14.80;80.20;;;;;;5045722;28;20219;-66
2023/08/23 11:30:45;;;;;;;12.10;3.20;;;14.70;80.20;;;;;;5075768;28;20183;-68
2023/08/23 11:33:21;;;;;;;14.57;3.53;;;14.70;80.30;;;;;;5088532;27;20607;-69
2023/08/23 11:35:49;;;;;;;14.70;3.77;;;14.80;80.50;;;;;;5087696;28;20182;-68
2023/08/23 11:38:16;;;;;;;12.90;3.63;;;14.80;80.90;;;;;;5086098;28;20705;-66
2023/08/23 11:40:47;;;;;;;16.63;4.50;;;15.00;81.20;;;;;;5087723;28;20214;-69
2023/08/23 11:43:18;;;;;;;16.77;3.63;;;15.00;80.30;;;;;;5088820;28;20185;-65
2023/08/23 11:45:48;;;;;;;13.57;2.97;;;15.00;80.40;;;;;;5085800;28;20188;-73
2023/08/23 11:48:16;;;;;;;11.97;2.77;;;15.00;80.20;;;;;;5087909;28;20192;-69
2023/08/23 11:50:45;;;;;;;8.43;3.37;;;15.00;80.10;;;;;;5091852;28;20190;-67
2023/08/23 11:53:12;;;;;;;12.83;3.60;;;15.00;79.90;;;;;;5087299;28;20616;-66
2023/08/23 11:55:40;;;;;;;12.87;3.77;;;15.00;79.90;;;;;;5089811;28;20180;-69
2023/08/23 11:58:09;;;;;;;10.10;3.37;;;15.00;80.10;;;;;;5085571;28;20184;-66
2023/08/23 12:00:37;;;;;;;11.90;3.47;;;14.80;80.40;;;;;;5088665;28;20192;-73
2023/08/23 12:03:04;;;;;;;10.40;3.63;;;14.80;80.50;;;;;;5086599;28;20171;-69
2023/08/23 12:05:32;;;;;;;11.37;3.83;;;14.70;80.70;;;;;;5088393;28;20527;-71
2023/08/23 12:07:59;;;;;;;11.33;3.77;;;14.70;81.00;;;;;;5088142;28;20175;-67
2023/08/23 12:10:26;;;;;;;9.93;3.37;;;14.60;81.00;;;;;;5087296;28;20183;-72
2023/08/23 12:12:54;;;;;;;11.43;3.67;;;14.50;81.40;;;;;;5090515;28;20213;-71
2023/08/23 12:15:21;;;;;;;14.77;3.70;;;14.50;81.50;;;;;;5088797;28;20263;-66
2023/08/23 12:17:49;;;;;;;10.17;4.10;;;14.50;81.70;;;;;;5088234;28;20184;-67
2023/08/23 12:20:16;;;;;;;13.73;3.90;;;14.50;81.80;;;;;;5088808;28;20652;-65
2023/08/23 12:22:47;;;;;;;12.10;3.93;;;14.40;82.00;;;;;;5086927;28;20236;-71
2023/08/23 12:25:15;;;;;;;12.43;3.73;;;14.40;82.40;;;;;;5087387;28;20174;-67
2023/08/23 12:27:42;;;;;;;9.13;3.93;;;14.30;82.40;;;;;;5084326;28;20964;-64
2023/08/23 12:30:10;;;;;;;17.07;4.60;;;14.40;82.60;;;;;;5087821;28;20178;-66
2023/08/23 12:32:37;;;;;;;14.00;4.60;;;14.40;82.60;;;;;;5087942;28;20231;-67
2023/08/23 12:35:05;;;;;;;15.27;4.93;;;14.40;82.60;;;;;;5087980;28;20629;-69
2023/08/23 12:37:33;;;;;;;8.73;4.67;;;14.40;82.70;;;;;;5084706;28;20249;-66
2023/08/23 12:40:00;;;;;;;12.30;5.03;;;14.30;82.70;;;;;;5085783;28;20183;-70
2023/08/23 12:42:28;;;;;;;14.27;5.33;;;14.30;82.70;;;;;;5086722;28;20191;-65
2023/08/23 12:44:55;;;;;;;13.47;5.13;;;14.30;82.80;;;;;;5071817;28;20660;-68
2023/08/23 12:47:23;;;;;;;13.57;5.27;;;14.20;83.10;;;;;;5074321;28;20270;-73
2023/08/23 12:49:50;;;;;;;14.33;5.20;;;14.20;83.30;;;;;;5073250;28;20179;-71